sensor_id;sensor_type;location;lat;lon;timestamp;pressure;altitude;pressure_sealevel;temperature;humidity
62708;BME280;48769;51.624;5.886;2023-04-15T00:00:40;100619.25;;;9.18;78.35
62708;BME280;48769;51.624;5.886;2023-04-15T00:03:05;100622.81;;;9.17;78.03
62708;BME280;48769;51.624;5.886;2023-04-15T00:05:31;100618.53;;;9.15;77.96
62708;BME280;48769;51.624;5.886;2023-04-15T00:07:57;100620.22;;;9.16;77.85
62708;BME280;48769;51.624;5.886;2023-04-15T00:10:23;100616.75;;;9.15;78.18
62708;BME280;48769;51.624;5.886;2023-04-15T00:12:49;100623.81;;;9.15;78.94
62708;BME280;48769;51.624;5.886;2023-04-15T00:15:15;100612.31;;;9.16;78.87
62708;BME280;48769;51.624;5.886;2023-04-15T00:17:40;100617.69;;;9.14;79.45
62708;BME280;48769;51.624;5.886;2023-04-15T00:20:06;100611.72;;;9.10;79.38
62708;BME280;48769;51.624;5.886;2023-04-15T00:22:31;100613.72;;;9.05;79.40
62708;BME280;48769;51.624;5.886;2023-04-15T00:24:57;100611.38;;;8.99;79.46
62708;BME280;48769;51.624;5.886;2023-04-15T00:27:22;100616.03;;;8.94;78.92
62708;BME280;48769;51.624;5.886;2023-04-15T00:29:47;100611.75;;;8.92;78.43
62708;BME280;48769;51.624;5.886;2023-04-15T00:32:13;100614.25;;;8.95;78.35
62708;BME280;48769;51.624;5.886;2023-04-15T00:34:38;100607.19;;;8.95;78.22
62708;BME280;48769;51.624;5.886;2023-04-15T00:37:03;100608.31;;;8.89;77.78
62708;BME280;48769;51.624;5.886;2023-04-15T00:39:29;100604.84;;;8.89;77.87
62708;BME280;48769;51.624;5.886;2023-04-15T00:41:55;100604.84;;;8.89;78.31
62708;BME280;48769;51.624;5.886;2023-04-15T00:44:21;100611.19;;;8.85;78.43
62708;BME280;48769;51.624;5.886;2023-04-15T00:46:50;100604.22;;;8.84;78.28
62708;BME280;48769;51.624;5.886;2023-04-15T00:49:15;100613.88;;;8.83;78.90
62708;BME280;48769;51.624;5.886;2023-04-15T00:51:42;100616.66;;;8.80;79.00
62708;BME280;48769;51.624;5.886;2023-04-15T00:54:09;100612.56;;;8.75;79.55
62708;BME280;48769;51.624;5.886;2023-04-15T00:56:35;100613.63;;;8.71;80.26
62708;BME280;48769;51.624;5.886;2023-04-15T00:59:02;100612.06;;;8.66;80.42
62708;BME280;48769;51.624;5.886;2023-04-15T01:01:27;100614.09;;;8.61;80.63
62708;BME280;48769;51.624;5.886;2023-04-15T01:03:55;100602.81;;;8.58;80.81
62708;BME280;48769;51.624;5.886;2023-04-15T01:06:22;100609.09;;;8.55;80.91
62708;BME280;48769;51.624;5.886;2023-04-15T01:08:47;100611.06;;;8.50;81.55
62708;BME280;48769;51.624;5.886;2023-04-15T01:11:13;100608.53;;;8.49;81.24
62708;BME280;48769;51.624;5.886;2023-04-15T01:13:39;100611.06;;;8.50;81.85
62708;BME280;48769;51.624;5.886;2023-04-15T01:16:06;100616.47;;;8.47;81.81
62708;BME280;48769;51.624;5.886;2023-04-15T01:18:32;100616.72;;;8.42;82.34
62708;BME280;48769;51.624;5.886;2023-04-15T01:21:00;100608.88;;;8.41;82.28
62708;BME280;48769;51.624;5.886;2023-04-15T01:23:26;100621.88;;;8.44;82.04
62708;BME280;48769;51.624;5.886;2023-04-15T01:25:52;100614.94;;;8.43;81.94
62708;BME280;48769;51.624;5.886;2023-04-15T01:28:18;100618.34;;;8.45;82.03
62708;BME280;48769;51.624;5.886;2023-04-15T01:30:44;100620.31;;;8.40;82.18
62708;BME280;48769;51.624;5.886;2023-04-15T01:33:09;100613.38;;;8.37;82.23
62708;BME280;48769;51.624;5.886;2023-04-15T01:35:35;100616.91;;;8.38;81.94
62708;BME280;48769;51.624;5.886;2023-04-15T01:38:06;100616.25;;;8.33;82.15
62708;BME280;48769;51.624;5.886;2023-04-15T01:40:32;100619.88;;;8.30;81.93
62708;BME280;48769;51.624;5.886;2023-04-15T01:42:58;100612.19;;;8.26;81.88
62708;BME280;48769;51.624;5.886;2023-04-15T01:45:23;100617.72;;;8.19;82.13
62708;BME280;48769;51.624;5.886;2023-04-15T01:47:48;100608.25;;;8.15;82.87
62708;BME280;48769;51.624;5.886;2023-04-15T01:50:14;100615.41;;;8.12;83.13
62708;BME280;48769;51.624;5.886;2023-04-15T01:52:40;100613.94;;;8.06;83.66
62708;BME280;48769;51.624;5.886;2023-04-15T01:55:06;100623.81;;;8.01;84.72
62708;BME280;48769;51.624;5.886;2023-04-15T01:57:33;100622.25;;;7.97;84.42
62708;BME280;48769;51.624;5.886;2023-04-15T01:59:58;100618.81;;;7.95;84.31
62708;BME280;48769;51.624;5.886;2023-04-15T02:02:23;100619.75;;;7.94;85.02
62708;BME280;48769;51.624;5.886;2023-04-15T02:04:49;100615.69;;;7.87;85.27
62708;BME280;48769;51.624;5.886;2023-04-15T02:07:14;100613.09;;;7.85;85.71
62708;BME280;48769;51.624;5.886;2023-04-15T02:09:40;100616.66;;;7.84;86.44
62708;BME280;48769;51.624;5.886;2023-04-15T02:12:05;100613.09;;;7.85;85.95
62708;BME280;48769;51.624;5.886;2023-04-15T02:14:31;100623.56;;;7.87;86.58
62708;BME280;48769;51.624;5.886;2023-04-15T02:16:56;100626.34;;;7.84;86.93
62708;BME280;48769;51.624;5.886;2023-04-15T02:19:21;100621.06;;;7.84;87.21
62708;BME280;48769;51.624;5.886;2023-04-15T02:21:46;100619.34;;;7.83;87.34
62708;BME280;48769;51.624;5.886;2023-04-15T02:24:12;100621.97;;;7.83;87.39
62708;BME280;48769;51.624;5.886;2023-04-15T02:26:37;100622.06;;;7.81;87.64
62708;BME280;48769;51.624;5.886;2023-04-15T02:29:02;100623.03;;;7.79;87.88
62708;BME280;48769;51.624;5.886;2023-04-15T02:31:28;100628.28;;;7.79;87.86
62708;BME280;48769;51.624;5.886;2023-04-15T02:33:53;100633.69;;;7.76;88.54
62708;BME280;48769;51.624;5.886;2023-04-15T02:36:19;100632.84;;;7.75;88.44
62708;BME280;48769;51.624;5.886;2023-04-15T02:38:45;100635.59;;;7.72;89.10
62708;BME280;48769;51.624;5.886;2023-04-15T02:41:10;100640.13;;;7.68;89.67
62708;BME280;48769;51.624;5.886;2023-04-15T02:43:36;100637.50;;;7.68;89.42
62708;BME280;48769;51.624;5.886;2023-04-15T02:46:04;100641.91;;;7.68;89.55
62708;BME280;48769;51.624;5.886;2023-04-15T02:48:29;100638.56;;;7.64;90.30
62708;BME280;48769;51.624;5.886;2023-04-15T02:51:19;100642.31;;;7.59;91.12
62708;BME280;48769;51.624;5.886;2023-04-15T02:53:46;100647.63;;;7.57;91.13
62708;BME280;48769;51.624;5.886;2023-04-15T02:56:11;100651.38;;;7.52;91.88
62708;BME280;48769;51.624;5.886;2023-04-15T02:58:37;100652.22;;;7.52;91.89
62708;BME280;48769;51.624;5.886;2023-04-15T03:01:03;100654.16;;;7.47;92.71
62708;BME280;48769;51.624;5.886;2023-04-15T03:03:28;100651.63;;;7.45;92.83
62708;BME280;48769;51.624;5.886;2023-04-15T03:05:54;100664.94;;;7.41;93.74
62708;BME280;48769;51.624;5.886;2023-04-15T03:08:19;100658.91;;;7.39;93.46
62708;BME280;48769;51.624;5.886;2023-04-15T03:10:48;100661.53;;;7.39;93.82
62708;BME280;48769;51.624;5.886;2023-04-15T03:13:13;100651.28;;;7.33;94.53
62708;BME280;48769;51.624;5.886;2023-04-15T03:15:38;100652.97;;;7.34;94.42
62708;BME280;48769;51.624;5.886;2023-04-15T03:18:03;100655.69;;;7.32;95.19
62708;BME280;48769;51.624;5.886;2023-04-15T03:20:29;100660.22;;;7.29;95.72
62708;BME280;48769;51.624;5.886;2023-04-15T03:22:57;100659.34;;;7.28;95.99
62708;BME280;48769;51.624;5.886;2023-04-15T03:25:23;100655.19;;;7.22;96.44
62708;BME280;48769;51.624;5.886;2023-04-15T03:27:48;100660.56;;;7.19;96.73
62708;BME280;48769;51.624;5.886;2023-04-15T03:30:13;100663.19;;;7.19;96.59
62708;BME280;48769;51.624;5.886;2023-04-15T03:32:39;100677.38;;;7.15;97.24
62708;BME280;48769;51.624;5.886;2023-04-15T03:35:04;100676.59;;;7.13;97.20
62708;BME280;48769;51.624;5.886;2023-04-15T03:37:30;100673.16;;;7.11;97.33
62708;BME280;48769;51.624;5.886;2023-04-15T03:39:56;100679.28;;;7.12;97.70
62708;BME280;48769;51.624;5.886;2023-04-15T03:42:21;100683.91;;;7.05;98.66
62708;BME280;48769;51.624;5.886;2023-04-15T03:44:46;100683.25;;;7.00;100.00
62708;BME280;48769;51.624;5.886;2023-04-15T03:47:11;100685.97;;;6.97;99.89
62708;BME280;48769;51.624;5.886;2023-04-15T03:49:37;100684.41;;;6.93;100.00
62708;BME280;48769;51.624;5.886;2023-04-15T03:52:02;100690.50;;;6.93;100.00
62708;BME280;48769;51.624;5.886;2023-04-15T03:54:27;100688.91;;;6.89;100.00
62708;BME280;48769;51.624;5.886;2023-04-15T03:56:53;100691.47;;;6.91;100.00
62708;BME280;48769;51.624;5.886;2023-04-15T03:59:18;100689.88;;;6.87;100.00
62708;BME280;48769;51.624;5.886;2023-04-15T04:01:43;100696.97;;;6.85;100.00
62708;BME280;48769;51.624;5.886;2023-04-15T04:04:09;100696.84;;;6.88;100.00
62708;BME280;48769;51.624;5.886;2023-04-15T04:06:34;100702.22;;;6.85;100.00
62708;BME280;48769;51.624;5.886;2023-04-15T04:09:00;100702.31;;;6.82;100.00
62708;BME280;48769;51.624;5.886;2023-04-15T04:11:25;100709.41;;;6.79;100.00
62708;BME280;48769;51.624;5.886;2023-04-15T04:13:52;100712.94;;;6.78;100.00
62708;BME280;48769;51.624;5.886;2023-04-15T04:16:17;100711.22;;;6.77;100.00
62708;BME280;48769;51.624;5.886;2023-04-15T04:18:43;100717.41;;;6.76;100.00
62708;BME280;48769;51.624;5.886;2023-04-15T04:21:08;100718.31;;;6.75;100.00
62708;BME280;48769;51.624;5.886;2023-04-15T04:23:33;100722.78;;;6.73;100.00
62708;BME280;48769;51.624;5.886;2023-04-15T04:25:58;100730.88;;;6.67;100.00
62708;BME280;48769;51.624;5.886;2023-04-15T04:28:24;100730.88;;;6.67;100.00
62708;BME280;48769;51.624;5.886;2023-04-15T04:30:49;100742.31;;;6.66;100.00
62708;BME280;48769;51.624;5.886;2023-04-15T04:33:15;100749.25;;;6.67;100.00
62708;BME280;48769;51.624;5.886;2023-04-15T04:35:40;100738.75;;;6.67;100.00
62708;BME280;48769;51.624;5.886;2023-04-15T04:38:05;100751.03;;;6.67;100.00
62708;BME280;48769;51.624;5.886;2023-04-15T04:40:31;100744.97;;;6.65;100.00
62708;BME280;48769;51.624;5.886;2023-04-15T04:42:56;100752.84;;;6.65;100.00
62708;BME280;48769;51.624;5.886;2023-04-15T04:45:22;100754.59;;;6.64;100.00
62708;BME280;48769;51.624;5.886;2023-04-15T04:47:47;100764.19;;;6.65;100.00
62708;BME280;48769;51.624;5.886;2023-04-15T04:50:13;100758.06;;;6.66;100.00
62708;BME280;48769;51.624;5.886;2023-04-15T04:52:38;100762.47;;;6.64;100.00
62708;BME280;48769;51.624;5.886;2023-04-15T04:55:04;100769.50;;;6.64;100.00
62708;BME280;48769;51.624;5.886;2023-04-15T04:57:29;100778.06;;;6.69;100.00
62708;BME280;48769;51.624;5.886;2023-04-15T04:59:55;100775.28;;;6.73;100.00
62708;BME280;48769;51.624;5.886;2023-04-15T05:02:20;100779.59;;;6.74;100.00
62708;BME280;48769;51.624;5.886;2023-04-15T05:04:46;100781.31;;;6.75;100.00
62708;BME280;48769;51.624;5.886;2023-04-15T05:07:11;100782.19;;;6.76;100.00
62708;BME280;48769;51.624;5.886;2023-04-15T05:09:37;100788.28;;;6.76;100.00
62708;BME280;48769;51.624;5.886;2023-04-15T05:12:05;100783.09;;;6.75;100.00
62708;BME280;48769;51.624;5.886;2023-04-15T05:14:31;100795.19;;;6.79;100.00
62708;BME280;48769;51.624;5.886;2023-04-15T05:16:57;100791.69;;;6.78;100.00
62708;BME280;48769;51.624;5.886;2023-04-15T05:19:22;100800.41;;;6.81;100.00
62708;BME280;48769;51.624;5.886;2023-04-15T05:21:47;100796.84;;;6.82;100.00
62708;BME280;48769;51.624;5.886;2023-04-15T05:24:13;100802.84;;;6.85;100.00
62708;BME280;48769;51.624;5.886;2023-04-15T05:26:38;100811.63;;;6.84;100.00
62708;BME280;48769;51.624;5.886;2023-04-15T05:29:03;100806.56;;;6.79;100.00
62708;BME280;48769;51.624;5.886;2023-04-15T05:31:29;100807.56;;;6.75;100.00
62708;BME280;48769;51.624;5.886;2023-04-15T05:33:54;100809.59;;;6.92;100.00
62708;BME280;48769;51.624;5.886;2023-04-15T05:36:20;100816.97;;;7.06;100.00
62708;BME280;48769;51.624;5.886;2023-04-15T05:38:45;100818.13;;;7.21;100.00
62708;BME280;48769;51.624;5.886;2023-04-15T05:41:10;100823.38;;;7.44;100.00
62708;BME280;48769;51.624;5.886;2023-04-15T05:43:36;100829.44;;;7.68;100.00
62708;BME280;48769;51.624;5.886;2023-04-15T05:46:01;100829.50;;;7.89;100.00
62708;BME280;48769;51.624;5.886;2023-04-15T05:48:26;100826.56;;;7.96;100.00
62708;BME280;48769;51.624;5.886;2023-04-15T05:50:52;100840.44;;;8.00;100.00
62708;BME280;48769;51.624;5.886;2023-04-15T05:53:17;100848.59;;;7.94;100.00
62708;BME280;48769;51.624;5.886;2023-04-15T05:55:43;100847.53;;;7.98;100.00
62708;BME280;48769;51.624;5.886;2023-04-15T05:58:08;100855.09;;;8.06;100.00
62708;BME280;48769;51.624;5.886;2023-04-15T06:00:33;100853.41;;;8.05;100.00
62708;BME280;48769;51.624;5.886;2023-04-15T06:02:58;100859.25;;;8.11;100.00
62708;BME280;48769;51.624;5.886;2023-04-15T06:05:25;100853.84;;;8.16;100.00
62708;BME280;48769;51.624;5.886;2023-04-15T06:07:50;100858.34;;;8.12;100.00
62708;BME280;48769;51.624;5.886;2023-04-15T06:10:15;100869.78;;;8.11;100.00
62708;BME280;48769;51.624;5.886;2023-04-15T06:12:41;100874.00;;;8.15;100.00
62708;BME280;48769;51.624;5.886;2023-04-15T06:15:06;100891.53;;;8.16;100.00
62708;BME280;48769;51.624;5.886;2023-04-15T06:17:34;100882.56;;;8.20;100.00
62708;BME280;48769;51.624;5.886;2023-04-15T06:19:59;100885.09;;;8.24;100.00
62708;BME280;48769;51.624;5.886;2023-04-15T06:22:25;100895.34;;;8.30;100.00
62708;BME280;48769;51.624;5.886;2023-04-15T06:24:50;100895.91;;;8.38;100.00
62708;BME280;48769;51.624;5.886;2023-04-15T06:27:16;100906.19;;;8.44;100.00
62708;BME280;48769;51.624;5.886;2023-04-15T06:29:41;100906.16;;;8.46;100.00
62708;BME280;48769;51.624;5.886;2023-04-15T06:32:07;100914.53;;;8.55;100.00
62708;BME280;48769;51.624;5.886;2023-04-15T06:34:33;100915.72;;;8.69;100.00
62708;BME280;48769;51.624;5.886;2023-04-15T06:36:58;100917.03;;;8.79;100.00
62708;BME280;48769;51.624;5.886;2023-04-15T06:39:25;100918.47;;;8.86;100.00
62708;BME280;48769;51.624;5.886;2023-04-15T06:41:51;100930.19;;;8.99;100.00
62708;BME280;48769;51.624;5.886;2023-04-15T06:44:16;100932.41;;;9.08;100.00
62708;BME280;48769;51.624;5.886;2023-04-15T06:46:43;100933.06;;;9.34;100.00
62708;BME280;48769;51.624;5.886;2023-04-15T06:49:08;100929.72;;;9.49;100.00
62708;BME280;48769;51.624;5.886;2023-04-15T06:51:34;100935.22;;;9.64;99.38
62708;BME280;48769;51.624;5.886;2023-04-15T06:54:00;100935.34;;;9.79;98.68
62708;BME280;48769;51.624;5.886;2023-04-15T06:56:26;100936.06;;;9.83;97.64
62708;BME280;48769;51.624;5.886;2023-04-15T06:58:51;100940.25;;;9.87;97.26
62708;BME280;48769;51.624;5.886;2023-04-15T07:01:17;100946.19;;;9.92;97.25
62708;BME280;48769;51.624;5.886;2023-04-15T07:03:42;100951.66;;;10.06;97.15
62708;BME280;48769;51.624;5.886;2023-04-15T07:06:08;100948.22;;;10.23;96.98
62708;BME280;48769;51.624;5.886;2023-04-15T07:08:34;100953.78;;;10.36;95.43
62708;BME280;48769;51.624;5.886;2023-04-15T07:10:59;100955.06;;;10.46;93.11
62708;BME280;48769;51.624;5.886;2023-04-15T07:13:25;100969.72;;;10.35;91.76
62708;BME280;48769;51.624;5.886;2023-04-15T07:15:51;100968.75;;;10.55;90.53
62708;BME280;48769;51.624;5.886;2023-04-15T07:18:16;100967.50;;;10.62;90.33
62708;BME280;48769;51.624;5.886;2023-04-15T07:20:41;100963.44;;;10.55;90.62
62708;BME280;48769;51.624;5.886;2023-04-15T07:23:07;100974.16;;;10.51;90.52
62708;BME280;48769;51.624;5.886;2023-04-15T07:25:32;100986.28;;;10.56;91.10
62708;BME280;48769;51.624;5.886;2023-04-15T07:27:57;100979.59;;;10.48;91.42
62708;BME280;48769;51.624;5.886;2023-04-15T07:30:23;100986.91;;;10.43;92.17
62708;BME280;48769;51.624;5.886;2023-04-15T07:32:48;100997.66;;;10.58;90.69
62708;BME280;48769;51.624;5.886;2023-04-15T07:35:13;100995.31;;;10.51;91.12
62708;BME280;48769;51.624;5.886;2023-04-15T07:37:39;101002.19;;;10.73;90.62
62708;BME280;48769;51.624;5.886;2023-04-15T07:40:04;101003.44;;;10.83;89.90
62708;BME280;48769;51.624;5.886;2023-04-15T07:42:32;101012.59;;;10.93;90.18
62708;BME280;48769;51.624;5.886;2023-04-15T07:44:58;101015.38;;;11.08;89.01
62708;BME280;48769;51.624;5.886;2023-04-15T07:47:23;101007.47;;;11.25;87.50
62708;BME280;48769;51.624;5.886;2023-04-15T07:49:49;101015.84;;;11.33;87.38
62708;BME280;48769;51.624;5.886;2023-04-15T07:52:15;101020.63;;;11.09;87.28
62708;BME280;48769;51.624;5.886;2023-04-15T07:54:41;101028.63;;;11.25;87.69
62708;BME280;48769;51.624;5.886;2023-04-15T07:57:06;101027.25;;;11.18;86.76
62708;BME280;48769;51.624;5.886;2023-04-15T07:59:32;101021.31;;;11.13;86.91
62708;BME280;48769;51.624;5.886;2023-04-15T08:01:58;101034.63;;;11.29;88.15
62708;BME280;48769;51.624;5.886;2023-04-15T08:04:23;101027.56;;;11.62;85.51
62708;BME280;48769;51.624;5.886;2023-04-15T08:06:49;101033.03;;;11.75;85.24
62708;BME280;48769;51.624;5.886;2023-04-15T08:09:15;101035.94;;;11.88;83.70
62708;BME280;48769;51.624;5.886;2023-04-15T08:11:40;101036.38;;;12.12;83.06
62708;BME280;48769;51.624;5.886;2023-04-15T08:14:06;101036.81;;;12.52;81.34
62708;BME280;48769;51.624;5.886;2023-04-15T08:16:32;101030.28;;;12.73;80.84
62708;BME280;48769;51.624;5.886;2023-04-15T08:18:57;101036.88;;;12.66;78.21
62708;BME280;48769;51.624;5.886;2023-04-15T08:21:23;101039.00;;;12.91;78.37
62708;BME280;48769;51.624;5.886;2023-04-15T08:23:50;101034.56;;;13.06;76.90
62708;BME280;48769;51.624;5.886;2023-04-15T08:26:16;101043.44;;;13.21;76.36
62708;BME280;48769;51.624;5.886;2023-04-15T08:28:43;101038.31;;;13.62;76.69
62708;BME280;48769;51.624;5.886;2023-04-15T08:31:08;101034.81;;;13.76;72.52
62708;BME280;48769;51.624;5.886;2023-04-15T08:33:34;101050.25;;;13.55;75.16
62708;BME280;48769;51.624;5.886;2023-04-15T08:36:00;101037.06;;;13.68;73.69
62708;BME280;48769;51.624;5.886;2023-04-15T08:38:25;101042.84;;;13.60;73.58
62708;BME280;48769;51.624;5.886;2023-04-15T08:40:50;101040.41;;;13.57;73.32
62708;BME280;48769;51.624;5.886;2023-04-15T08:43:26;101046.25;;;13.33;73.85
62708;BME280;48769;51.624;5.886;2023-04-15T08:45:53;101066.28;;;13.53;74.03
62708;BME280;48769;51.624;5.886;2023-04-15T08:48:19;101056.25;;;13.73;72.67
62708;BME280;48769;51.624;5.886;2023-04-15T08:50:46;101058.22;;;13.69;71.57
62708;BME280;48769;51.624;5.886;2023-04-15T08:53:12;101061.63;;;13.57;70.41
62708;BME280;48769;51.624;5.886;2023-04-15T08:55:45;101070.53;;;13.56;69.77
62708;BME280;48769;51.624;5.886;2023-04-15T08:58:12;101065.84;;;13.31;70.28
62708;BME280;48769;51.624;5.886;2023-04-15T09:00:38;101065.00;;;13.15;69.14
62708;BME280;48769;51.624;5.886;2023-04-15T09:03:04;101075.78;;;13.12;71.35
62708;BME280;48769;51.624;5.886;2023-04-15T09:05:34;101075.84;;;12.96;70.60
62708;BME280;48769;51.624;5.886;2023-04-15T09:08:00;101071.31;;;12.98;68.92
62708;BME280;48769;51.624;5.886;2023-04-15T09:10:26;101078.41;;;12.97;69.77
62708;BME280;48769;51.624;5.886;2023-04-15T09:12:52;101084.13;;;12.90;70.60
62708;BME280;48769;51.624;5.886;2023-04-15T09:15:17;101088.75;;;13.02;71.06
62708;BME280;48769;51.624;5.886;2023-04-15T09:17:44;101093.91;;;13.19;70.91
62708;BME280;48769;51.624;5.886;2023-04-15T09:20:11;101100.06;;;13.36;71.89
62708;BME280;48769;51.624;5.886;2023-04-15T09:22:38;101094.03;;;13.48;70.51
62708;BME280;48769;51.624;5.886;2023-04-15T09:25:25;101102.59;;;13.53;70.37
62708;BME280;48769;51.624;5.886;2023-04-15T09:27:58;101100.31;;;13.61;68.28
62708;BME280;48769;51.624;5.886;2023-04-15T09:30:24;101110.88;;;13.32;67.45
62708;BME280;48769;51.624;5.886;2023-04-15T09:32:51;101107.56;;;13.13;68.99
62708;BME280;48769;51.624;5.886;2023-04-15T09:35:17;101109.50;;;13.25;69.12
62708;BME280;48769;51.624;5.886;2023-04-15T09:37:43;101120.56;;;13.48;69.61
62708;BME280;48769;51.624;5.886;2023-04-15T09:40:09;101112.00;;;13.87;68.20
62708;BME280;48769;51.624;5.886;2023-04-15T09:42:35;101119.59;;;14.22;68.22
62708;BME280;48769;51.624;5.886;2023-04-15T09:45:11;101110.88;;;14.20;66.24
62708;BME280;48769;51.624;5.886;2023-04-15T09:47:37;101121.78;;;14.30;67.60
62708;BME280;48769;51.624;5.886;2023-04-15T09:50:02;101110.50;;;14.40;66.24
62708;BME280;48769;51.624;5.886;2023-04-15T09:52:28;101116.47;;;14.44;65.89
62708;BME280;48769;51.624;5.886;2023-04-15T09:54:54;101124.25;;;13.90;66.75
62708;BME280;48769;51.624;5.886;2023-04-15T09:57:23;101133.91;;;13.91;68.96
62708;BME280;48769;51.624;5.886;2023-04-15T09:59:49;101134.50;;;14.24;66.79
62708;BME280;48769;51.624;5.886;2023-04-15T10:02:17;101129.19;;;14.39;65.25
62708;BME280;48769;51.624;5.886;2023-04-15T10:04:43;101123.50;;;14.59;64.92
62708;BME280;48769;51.624;5.886;2023-04-15T10:07:11;101125.53;;;14.68;65.87
62708;BME280;48769;51.624;5.886;2023-04-15T10:09:37;101125.53;;;14.83;65.30
62708;BME280;48769;51.624;5.886;2023-04-15T10:12:03;101130.91;;;14.95;65.18
62708;BME280;48769;51.624;5.886;2023-04-15T10:14:32;101124.44;;;15.00;62.65
62708;BME280;48769;51.624;5.886;2023-04-15T10:17:03;101134.69;;;14.64;65.09
62708;BME280;48769;51.624;5.886;2023-04-15T10:19:30;101136.78;;;14.31;64.91
62708;BME280;48769;51.624;5.886;2023-04-15T10:21:57;101144.94;;;14.42;65.50
62708;BME280;48769;51.624;5.886;2023-04-15T10:24:23;101142.09;;;14.31;64.78
62708;BME280;48769;51.624;5.886;2023-04-15T10:26:50;101140.38;;;14.30;64.00
62708;BME280;48769;51.624;5.886;2023-04-15T10:29:16;101153.66;;;13.87;66.07
62708;BME280;48769;51.624;5.886;2023-04-15T10:31:42;101154.69;;;13.84;66.48
62708;BME280;48769;51.624;5.886;2023-04-15T10:34:09;101149.31;;;14.29;65.58
62708;BME280;48769;51.624;5.886;2023-04-15T10:36:35;101150.06;;;14.45;64.26
62708;BME280;48769;51.624;5.886;2023-04-15T10:39:00;101161.94;;;14.11;64.43
62708;BME280;48769;51.624;5.886;2023-04-15T10:41:27;101149.50;;;14.25;65.53
62708;BME280;48769;51.624;5.886;2023-04-15T10:46:45;101156.63;;;14.11;64.27
62708;BME280;48769;51.624;5.886;2023-04-15T10:49:16;101159.09;;;14.28;65.36
62708;BME280;48769;51.624;5.886;2023-04-15T10:51:44;101161.63;;;14.30;64.62
62708;BME280;48769;51.624;5.886;2023-04-15T10:56:52;101163.50;;;14.85;63.32
62708;BME280;48769;51.624;5.886;2023-04-15T10:59:31;101164.72;;;14.93;63.79
62708;BME280;48769;51.624;5.886;2023-04-15T12:50:23;101230.75;;;15.70;57.25
62708;BME280;48769;51.624;5.886;2023-04-15T12:52:49;101222.38;;;16.14;55.72
62708;BME280;48769;51.624;5.886;2023-04-15T12:55:14;101224.41;;;16.62;53.61
62708;BME280;48769;51.624;5.886;2023-04-15T12:57:39;101222.50;;;17.37;53.14
62708;BME280;48769;51.624;5.886;2023-04-15T13:00:05;101210.72;;;17.64;50.39
62708;BME280;48769;51.624;5.886;2023-04-15T13:02:32;101218.31;;;17.46;50.89
62708;BME280;48769;51.624;5.886;2023-04-15T13:04:57;101225.31;;;16.99;51.42
62708;BME280;48769;51.624;5.886;2023-04-15T13:07:22;101230.47;;;17.26;50.60
62708;BME280;48769;51.624;5.886;2023-04-15T13:09:48;101235.59;;;17.29;51.04
62708;BME280;48769;51.624;5.886;2023-04-15T13:12:13;101240.69;;;17.32;51.14
62708;BME280;48769;51.624;5.886;2023-04-15T13:14:39;101235.06;;;16.87;51.39
62708;BME280;48769;51.624;5.886;2023-04-15T13:17:04;101249.34;;;16.73;52.46
62708;BME280;48769;51.624;5.886;2023-04-15T13:19:34;101252.38;;;17.55;50.88
62708;BME280;48769;51.624;5.886;2023-04-15T13:22:01;101247.28;;;17.87;49.34
62708;BME280;48769;51.624;5.886;2023-04-15T13:24:26;101240.59;;;18.17;48.29
62708;BME280;48769;51.624;5.886;2023-04-15T13:26:51;101249.78;;;18.02;48.44
62708;BME280;48769;51.624;5.886;2023-04-15T13:29:18;101256.97;;;17.77;48.90
62708;BME280;48769;51.624;5.886;2023-04-15T13:31:43;101261.25;;;17.67;50.62
62708;BME280;48769;51.624;5.886;2023-04-15T13:34:08;101262.94;;;17.33;51.05
62708;BME280;48769;51.624;5.886;2023-04-15T13:36:34;101262.00;;;17.21;51.32
62708;BME280;48769;51.624;5.886;2023-04-15T13:38:59;101259.16;;;16.73;51.07
62708;BME280;48769;51.624;5.886;2023-04-15T13:41:24;101260.13;;;16.72;52.21
62708;BME280;48769;51.624;5.886;2023-04-15T13:43:49;101267.84;;;16.76;53.53
62708;BME280;48769;51.624;5.886;2023-04-15T13:46:15;101268.56;;;16.66;53.29
62708;BME280;48769;51.624;5.886;2023-04-15T13:48:40;101273.69;;;16.43;53.52
62708;BME280;48769;51.624;5.886;2023-04-15T13:51:06;101279.88;;;16.44;54.93
62708;BME280;48769;51.624;5.886;2023-04-15T13:53:31;101285.34;;;16.42;54.26
62708;BME280;48769;51.624;5.886;2023-04-15T13:55:57;101298.81;;;16.01;55.05
62708;BME280;48769;51.624;5.886;2023-04-15T13:58:22;101297.53;;;16.06;55.91
62708;BME280;48769;51.624;5.886;2023-04-15T14:00:47;101298.19;;;16.10;55.72
62708;BME280;48769;51.624;5.886;2023-04-15T14:03:13;101297.59;;;15.92;56.45
62708;BME280;48769;51.624;5.886;2023-04-15T14:05:38;101311.88;;;15.91;55.99
62708;BME280;48769;51.624;5.886;2023-04-15T14:08:04;101312.84;;;15.90;56.11
62708;BME280;48769;51.624;5.886;2023-04-15T14:10:29;101319.53;;;16.23;57.09
62708;BME280;48769;51.624;5.886;2023-04-15T14:12:54;101315.50;;;16.43;55.76
62708;BME280;48769;51.624;5.886;2023-04-15T14:15:20;101313.28;;;16.49;55.11
62708;BME280;48769;51.624;5.886;2023-04-15T14:17:45;101323.63;;;16.28;55.26
62708;BME280;48769;51.624;5.886;2023-04-15T14:20:11;101323.69;;;16.27;55.29
62708;BME280;48769;51.624;5.886;2023-04-15T14:22:36;101337.53;;;16.06;54.95
62708;BME280;48769;51.624;5.886;2023-04-15T14:25:01;101337.88;;;16.27;55.29
62708;BME280;48769;51.624;5.886;2023-04-15T14:27:27;101324.31;;;16.18;53.69
62708;BME280;48769;51.624;5.886;2023-04-15T14:29:52;101335.19;;;16.15;54.32
62708;BME280;48769;51.624;5.886;2023-04-15T14:32:18;101345.66;;;16.30;55.31
62708;BME280;48769;51.624;5.886;2023-04-15T14:34:43;101354.00;;;16.26;56.32
62708;BME280;48769;51.624;5.886;2023-04-15T14:37:09;101352.19;;;16.26;55.36
62708;BME280;48769;51.624;5.886;2023-04-15T14:39:34;101351.22;;;16.40;54.10